createdAt,value
2022-11-26T08:17:13.314Z,16.02
2022-11-26T08:18:17.123Z,14.89
2022-11-26T08:19:20.092Z,16.76
2022-11-26T08:20:28.883Z,14.31
2022-11-26T08:21:31.196Z,15.33
2022-11-26T08:22:34.961Z,14.98
2022-11-26T08:23:39.161Z,17.59
2022-11-26T08:24:43.752Z,15.91
2022-11-26T08:26:14.010Z,18.61
2022-11-26T08:26:53.069Z,20.87
2022-11-26T08:27:56.413Z,19.57
2022-11-26T08:28:59.890Z,17.65
2022-11-26T08:30:07.767Z,18.02
2022-11-26T08:31:14.286Z,19.45
2022-11-26T08:32:19.153Z,16.09
2022-11-26T08:33:23.254Z,21.12
2022-11-26T08:34:25.951Z,19.72
2022-11-26T08:35:51.527Z,19.92
2022-11-26T08:36:35.806Z,20.71
2022-11-26T08:37:42.555Z,19.48
2022-11-26T08:38:45.604Z,18.14
2022-11-26T08:39:47.873Z,23.44
2022-11-26T08:40:51.478Z,18.59
2022-11-26T08:41:55.864Z,19.35
2022-11-26T08:42:58.916Z,20.14
2022-11-26T08:44:06.567Z,20.71
2022-11-26T08:45:10.412Z,22.56
2022-11-26T08:46:14.257Z,20.00
2022-11-26T08:47:18.074Z,21.12
2022-11-26T08:48:22.827Z,20.88
2022-11-26T08:49:26.505Z,20.04
2022-11-26T08:50:34.023Z,22.18
2022-11-26T08:51:37.602Z,21.19
2022-11-26T08:52:44.310Z,21.88
2022-11-26T08:53:47.926Z,20.62
2022-11-26T08:54:52.237Z,22.77
2022-11-26T08:56:03.522Z,21.76
2022-11-26T08:57:06.836Z,17.49
2022-11-26T08:58:11.406Z,19.37
2022-11-26T08:59:14.847Z,20.06
2022-11-26T09:00:19.392Z,18.03
2022-11-26T09:01:25.481Z,17.54
2022-11-26T09:02:29.093Z,17.82
2022-11-26T09:03:34.258Z,19.46
2022-11-26T09:04:39.128Z,18.63
2022-11-26T09:05:42.747Z,16.47
2022-11-26T09:06:47.391Z,21.18
2022-11-26T09:07:50.728Z,19.13
2022-11-26T09:09:12.956Z,18.72
2022-11-26T09:10:16.023Z,17.83
2022-11-26T09:11:22.492Z,18.60
2022-11-26T09:12:26.091Z,18.77
2022-11-26T09:13:28.781Z,20.98
2022-11-26T09:14:42.188Z,21.12
2022-11-26T09:15:44.777Z,15.61
2022-11-26T09:16:48.318Z,17.70
2022-11-26T09:17:52.874Z,18.08
2022-11-26T09:18:56.376Z,18.51
2022-11-26T09:19:58.744Z,18.64
2022-11-26T09:21:05.970Z,17.72
2022-11-26T09:22:09.702Z,13.97
2022-11-26T09:23:13.294Z,17.16
2022-11-26T09:24:18.289Z,17.22
2022-11-26T09:25:21.148Z,18.78
2022-11-26T09:26:24.809Z,18.39
2022-11-26T09:27:28.476Z,17.94
2022-11-26T09:28:32.174Z,15.92
2022-11-26T09:29:35.167Z,15.48
2022-11-26T09:30:37.898Z,14.96
2022-11-26T09:32:15.599Z,20.57
2022-11-26T09:32:51.584Z,14.62
2022-11-26T09:34:00.181Z,18.82
2022-11-26T09:35:03.894Z,16.99
2022-11-26T09:36:11.648Z,17.86
2022-11-26T09:37:15.150Z,16.36
2022-11-26T09:38:25.242Z,14.94
2022-11-26T09:39:28.296Z,15.28
2022-11-26T09:41:58.418Z,14.83
2022-11-26T09:43:16.078Z,17.36
2022-11-26T09:44:23.391Z,15.94
2022-11-26T09:45:42.849Z,20.11
2022-11-26T09:47:11.034Z,18.28
2022-11-26T09:47:59.185Z,18.66
2022-11-26T09:49:05.560Z,17.88
2022-11-26T09:50:15.233Z,15.91
2022-11-26T09:51:21.025Z,16.85
2022-11-26T09:52:28.069Z,17.62
2022-11-26T09:53:38.118Z,17.22
2022-11-26T09:54:42.182Z,16.65
2022-11-26T09:55:54.551Z,17.21
2022-11-26T09:57:18.065Z,14.35
2022-11-26T09:58:43.229Z,15.01
2022-11-26T09:59:50.815Z,15.15
2022-11-26T10:00:57.569Z,17.59
2022-11-26T10:02:02.150Z,14.04
2022-11-26T10:03:14.407Z,16.17
2022-11-26T10:04:28.632Z,13.96
2022-11-26T10:05:54.393Z,13.61
2022-11-26T10:08:38.944Z,15.35
2022-11-26T10:09:55.133Z,13.52
2022-11-26T10:11:05.048Z,15.18
2022-11-26T10:12:27.368Z,15.71
2022-11-26T10:13:51.155Z,18.27
2022-11-26T10:15:13.554Z,15.19
2022-11-26T10:16:35.925Z,13.45
2022-11-26T10:17:52.045Z,14.91
2022-11-26T10:20:20.313Z,13.77
2022-11-26T10:21:58.701Z,16.29
2022-11-26T10:23:00.626Z,16.33
2022-11-26T10:24:29.529Z,13.46
2022-11-26T10:25:36.931Z,15.48
2022-11-26T10:26:41.300Z,15.06
2022-11-26T10:27:45.947Z,15.48
2022-11-26T10:28:53.146Z,13.78
2022-11-26T10:30:14.711Z,14.26
2022-11-26T10:31:24.798Z,15.08
2022-11-26T10:32:37.986Z,15.54
2022-11-26T10:33:47.723Z,15.65
2022-11-26T10:35:00.938Z,15.51
2022-11-26T10:36:10.613Z,13.63
2022-11-26T10:37:15.055Z,18.51
2022-11-26T10:38:18.517Z,15.77
2022-11-26T10:39:21.301Z,18.12
2022-11-26T10:40:27.968Z,18.34
2022-11-26T10:41:40.185Z,16.74
2022-11-26T10:42:47.704Z,17.99
2022-11-26T10:45:18.052Z,14.30
2022-11-26T10:47:45.381Z,16.51
2022-11-26T10:48:49.125Z,15.73
2022-11-26T10:49:58.110Z,14.96
2022-11-26T10:51:06.471Z,14.32
2022-11-26T10:52:10.774Z,14.74
2022-11-26T10:53:23.254Z,15.31
2022-11-26T10:55:44.388Z,14.87
2022-11-26T10:56:52.518Z,14.42
2022-11-26T10:58:07.290Z,12.49
2022-11-26T10:59:30.629Z,14.24
2022-11-26T11:00:50.721Z,12.39
2022-11-26T11:01:57.811Z,16.76
2022-11-26T11:03:03.915Z,14.01
2022-11-26T11:04:30.691Z,13.35
2022-11-26T11:05:34.630Z,16.99
2022-11-26T11:06:44.423Z,15.98
2022-11-26T11:07:48.317Z,13.51
2022-11-26T11:08:58.274Z,14.89
2022-11-26T11:12:31.162Z,13.47
2022-11-26T11:13:48.426Z,14.33
2022-11-26T11:14:53.967Z,12.51
2022-11-26T11:16:02.833Z,14.42
2022-11-26T11:17:07.743Z,15.65
2022-11-26T11:18:20.944Z,14.79
